sensor_id;sensor_type;location;lat;lon;timestamp;temperature;humidity
9828;DHT22;4953;48.952;9.442;2022-11-18T05:00:58;8.60;99.90
9828;DHT22;4953;48.952;9.442;2022-11-18T05:03:25;8.60;99.90
9828;DHT22;4953;48.952;9.442;2022-11-18T05:05:51;8.70;99.90
9828;DHT22;4953;48.952;9.442;2022-11-18T05:08:18;8.70;99.90
9828;DHT22;4953;48.952;9.442;2022-11-18T05:10:45;8.70;99.90
9828;DHT22;4953;48.952;9.442;2022-11-18T05:13:12;8.60;99.90
9828;DHT22;4953;48.952;9.442;2022-11-18T05:15:37;8.60;99.90
9828;DHT22;4953;48.952;9.442;2022-11-18T05:18:06;8.60;99.90
9828;DHT22;4953;48.952;9.442;2022-11-18T05:20:36;8.60;99.90
9828;DHT22;4953;48.952;9.442;2022-11-18T05:23:03;8.70;99.90
9828;DHT22;4953;48.952;9.442;2022-11-18T05:25:30;8.70;99.90
9828;DHT22;4953;48.952;9.442;2022-11-18T05:27:57;8.60;99.90
9828;DHT22;4953;48.952;9.442;2022-11-18T05:30:23;8.60;99.90
9828;DHT22;4953;48.952;9.442;2022-11-18T05:32:50;8.50;99.90
9828;DHT22;4953;48.952;9.442;2022-11-18T05:35:18;8.40;99.90
9828;DHT22;4953;48.952;9.442;2022-11-18T05:37:45;8.40;99.90
9828;DHT22;4953;48.952;9.442;2022-11-18T05:40:12;8.50;99.90
9828;DHT22;4953;48.952;9.442;2022-11-18T05:42:39;8.50;99.90
9828;DHT22;4953;48.952;9.442;2022-11-18T05:45:23;8.50;99.90
9828;DHT22;4953;48.952;9.442;2022-11-18T05:47:50;8.50;99.90
9828;DHT22;4953;48.952;9.442;2022-11-18T05:50:27;8.50;99.90
9828;DHT22;4953;48.952;9.442;2022-11-18T05:52:54;8.50;99.90
9828;DHT22;4953;48.952;9.442;2022-11-18T05:55:22;8.50;99.90
9828;DHT22;4953;48.952;9.442;2022-11-18T05:57:49;8.50;99.90
9828;DHT22;4953;48.952;9.442;2022-11-18T06:00:17;8.50;99.90
9828;DHT22;4953;48.952;9.442;2022-11-18T06:02:44;8.40;99.90
9828;DHT22;4953;48.952;9.442;2022-11-18T06:05:12;8.40;99.90
9828;DHT22;4953;48.952;9.442;2022-11-18T06:07:42;8.40;99.90
9828;DHT22;4953;48.952;9.442;2022-11-18T06:10:14;8.50;99.90
9828;DHT22;4953;48.952;9.442;2022-11-18T06:12:44;8.50;99.90
9828;DHT22;4953;48.952;9.442;2022-11-18T06:15:16;8.60;99.90
9828;DHT22;4953;48.952;9.442;2022-11-18T06:17:45;8.50;99.90
9828;DHT22;4953;48.952;9.442;2022-11-18T06:20:16;8.60;99.90
9828;DHT22;4953;48.952;9.442;2022-11-18T06:22:45;8.60;99.90
9828;DHT22;4953;48.952;9.442;2022-11-18T06:25:12;8.60;99.90
9828;DHT22;4953;48.952;9.442;2022-11-18T06:27:39;8.60;99.90
9828;DHT22;4953;48.952;9.442;2022-11-18T06:30:07;8.60;99.90
9828;DHT22;4953;48.952;9.442;2022-11-18T06:32:34;8.70;99.90
9828;DHT22;4953;48.952;9.442;2022-11-18T06:35:01;8.70;99.90
9828;DHT22;4953;48.952;9.442;2022-11-18T06:37:28;8.70;99.90
9828;DHT22;4953;48.952;9.442;2022-11-18T06:39:56;8.70;99.90
9828;DHT22;4953;48.952;9.442;2022-11-18T06:42:22;8.70;99.90
9828;DHT22;4953;48.952;9.442;2022-11-18T06:45:08;8.70;99.90
9828;DHT22;4953;48.952;9.442;2022-11-18T06:47:35;8.70;99.90
9828;DHT22;4953;48.952;9.442;2022-11-18T06:50:02;8.70;99.90
9828;DHT22;4953;48.952;9.442;2022-11-18T06:52:29;8.80;99.90
9828;DHT22;4953;48.952;9.442;2022-11-18T06:54:57;8.80;99.90
9828;DHT22;4953;48.952;9.442;2022-11-18T06:57:23;8.80;99.90
9828;DHT22;4953;48.952;9.442;2022-11-18T06:59:50;8.80;99.90
9828;DHT22;4953;48.952;9.442;2022-11-18T07:02:17;8.80;99.90
9828;DHT22;4953;48.952;9.442;2022-11-18T07:04:44;8.80;99.90
9828;DHT22;4953;48.952;9.442;2022-11-18T07:07:11;8.80;99.90
9828;DHT22;4953;48.952;9.442;2022-11-18T07:09:38;8.80;99.90
9828;DHT22;4953;48.952;9.442;2022-11-18T07:12:06;8.80;99.90
9828;DHT22;4953;48.952;9.442;2022-11-18T07:14:33;8.70;99.90
9828;DHT22;4953;48.952;9.442;2022-11-18T07:16:59;8.70;99.90
9828;DHT22;4953;48.952;9.442;2022-11-18T07:19:29;8.60;99.90
9828;DHT22;4953;48.952;9.442;2022-11-18T07:21:56;8.50;99.90
9828;DHT22;4953;48.952;9.442;2022-11-18T07:24:24;8.50;99.90
9828;DHT22;4953;48.952;9.442;2022-11-18T07:26:52;8.40;99.90
9828;DHT22;4953;48.952;9.442;2022-11-18T07:29:20;8.40;99.90
9828;DHT22;4953;48.952;9.442;2022-11-18T07:31:47;8.30;99.90
9828;DHT22;4953;48.952;9.442;2022-11-18T07:34:17;8.20;99.90
9828;DHT22;4953;48.952;9.442;2022-11-18T07:36:43;8.20;99.90
9828;DHT22;4953;48.952;9.442;2022-11-18T07:39:10;8.10;99.90
9828;DHT22;4953;48.952;9.442;2022-11-18T07:41:38;8.10;99.90
9828;DHT22;4953;48.952;9.442;2022-11-18T07:44:05;8.10;99.90
9828;DHT22;4953;48.952;9.442;2022-11-18T07:46:34;8.10;99.90
9828;DHT22;4953;48.952;9.442;2022-11-18T07:49:03;8.00;99.90
9828;DHT22;4953;48.952;9.442;2022-11-18T07:51:31;8.00;99.90
9828;DHT22;4953;48.952;9.442;2022-11-18T07:53:59;8.00;99.90
9828;DHT22;4953;48.952;9.442;2022-11-18T07:56:26;7.90;99.90
9828;DHT22;4953;48.952;9.442;2022-11-18T07:58:53;7.90;99.90
9828;DHT22;4953;48.952;9.442;2022-11-18T08:01:22;7.90;99.90
9828;DHT22;4953;48.952;9.442;2022-11-18T08:03:50;7.90;99.90
9828;DHT22;4953;48.952;9.442;2022-11-18T08:06:18;7.90;99.90
9828;DHT22;4953;48.952;9.442;2022-11-18T08:08:45;8.00;99.90
9828;DHT22;4953;48.952;9.442;2022-11-18T08:11:14;8.00;99.90
9828;DHT22;4953;48.952;9.442;2022-11-18T08:13:41;8.00;99.90
9828;DHT22;4953;48.952;9.442;2022-11-18T08:16:12;7.90;99.90
9828;DHT22;4953;48.952;9.442;2022-11-18T08:18:39;7.90;99.90
9828;DHT22;4953;48.952;9.442;2022-11-18T08:21:08;8.00;99.90
9828;DHT22;4953;48.952;9.442;2022-11-18T08:23:35;8.00;99.90
9828;DHT22;4953;48.952;9.442;2022-11-18T08:26:03;8.00;99.90
9828;DHT22;4953;48.952;9.442;2022-11-18T08:28:30;8.00;99.90
9828;DHT22;4953;48.952;9.442;2022-11-18T08:30:58;8.00;99.90
9828;DHT22;4953;48.952;9.442;2022-11-18T08:33:25;8.00;99.90
9828;DHT22;4953;48.952;9.442;2022-11-18T08:35:52;8.00;99.90
9828;DHT22;4953;48.952;9.442;2022-11-18T08:38:20;8.00;99.90
9828;DHT22;4953;48.952;9.442;2022-11-18T08:40:47;8.00;99.90
9828;DHT22;4953;48.952;9.442;2022-11-18T08:43:14;8.00;99.90
9828;DHT22;4953;48.952;9.442;2022-11-18T08:45:40;8.00;99.90
9828;DHT22;4953;48.952;9.442;2022-11-18T08:48:07;8.00;99.90
9828;DHT22;4953;48.952;9.442;2022-11-18T08:50:34;7.90;99.90
9828;DHT22;4953;48.952;9.442;2022-11-18T08:53:01;8.00;99.90
9828;DHT22;4953;48.952;9.442;2022-11-18T08:55:29;7.90;99.90
9828;DHT22;4953;48.952;9.442;2022-11-18T08:57:56;7.90;99.90
9828;DHT22;4953;48.952;9.442;2022-11-18T09:00:22;8.00;99.90
9828;DHT22;4953;48.952;9.442;2022-11-18T09:02:49;8.00;99.90
9828;DHT22;4953;48.952;9.442;2022-11-18T09:05:16;8.00;99.90
9828;DHT22;4953;48.952;9.442;2022-11-18T09:07:43;8.00;99.90
9828;DHT22;4953;48.952;9.442;2022-11-18T09:10:10;8.00;99.90
9828;DHT22;4953;48.952;9.442;2022-11-18T09:12:38;8.00;99.90
9828;DHT22;4953;48.952;9.442;2022-11-18T09:15:05;8.00;99.90
9828;DHT22;4953;48.952;9.442;2022-11-18T09:17:33;8.00;99.90
9828;DHT22;4953;48.952;9.442;2022-11-18T09:20:00;8.10;99.90
9828;DHT22;4953;48.952;9.442;2022-11-18T09:22:26;8.00;99.90
9828;DHT22;4953;48.952;9.442;2022-11-18T09:24:53;8.00;99.90
9828;DHT22;4953;48.952;9.442;2022-11-18T09:27:20;8.00;99.90
9828;DHT22;4953;48.952;9.442;2022-11-18T09:29:48;8.00;99.90
9828;DHT22;4953;48.952;9.442;2022-11-18T09:32:15;8.10;99.90
9828;DHT22;4953;48.952;9.442;2022-11-18T09:34:42;8.00;99.90
9828;DHT22;4953;48.952;9.442;2022-11-18T09:37:08;8.00;99.90
9828;DHT22;4953;48.952;9.442;2022-11-18T09:39:35;8.00;99.90
9828;DHT22;4953;48.952;9.442;2022-11-18T09:42:15;8.10;99.90
9828;DHT22;4953;48.952;9.442;2022-11-18T09:44:58;8.10;99.90
9828;DHT22;4953;48.952;9.442;2022-11-18T09:47:29;8.20;99.90
9828;DHT22;4953;48.952;9.442;2022-11-18T09:49:59;8.20;99.90
9828;DHT22;4953;48.952;9.442;2022-11-18T09:52:28;8.20;99.90
9828;DHT22;4953;48.952;9.442;2022-11-18T09:54:57;8.20;99.90
9828;DHT22;4953;48.952;9.442;2022-11-18T09:57:29;8.20;99.90
9828;DHT22;4953;48.952;9.442;2022-11-18T09:59:59;8.20;99.90
9828;DHT22;4953;48.952;9.442;2022-11-18T10:02:41;8.20;99.90
9828;DHT22;4953;48.952;9.442;2022-11-18T10:05:15;8.20;99.90
9828;DHT22;4953;48.952;9.442;2022-11-18T10:07:47;8.20;99.90
9828;DHT22;4953;48.952;9.442;2022-11-18T10:10:20;8.20;99.90
9828;DHT22;4953;48.952;9.442;2022-11-18T10:12:53;8.30;99.90
9828;DHT22;4953;48.952;9.442;2022-11-18T10:15:28;8.30;99.90
9828;DHT22;4953;48.952;9.442;2022-11-18T10:18:03;8.30;99.90
9828;DHT22;4953;48.952;9.442;2022-11-18T10:20:42;8.30;99.90
9828;DHT22;4953;48.952;9.442;2022-11-18T10:23:17;8.40;99.90
9828;DHT22;4953;48.952;9.442;2022-11-18T10:25:47;8.40;99.90
9828;DHT22;4953;48.952;9.442;2022-11-18T10:28:20;8.40;99.90
9828;DHT22;4953;48.952;9.442;2022-11-18T10:30:49;8.40;99.90
9828;DHT22;4953;48.952;9.442;2022-11-18T10:33:25;8.40;99.90
9828;DHT22;4953;48.952;9.442;2022-11-18T10:36:17;8.30;99.90
9828;DHT22;4953;48.952;9.442;2022-11-18T10:38:44;8.40;99.90
9828;DHT22;4953;48.952;9.442;2022-11-18T10:41:13;8.40;99.90
9828;DHT22;4953;48.952;9.442;2022-11-18T10:43:43;8.50;99.90
9828;DHT22;4953;48.952;9.442;2022-11-18T10:46:27;8.50;99.90
9828;DHT22;4953;48.952;9.442;2022-11-18T10:49:12;8.50;99.90
9828;DHT22;4953;48.952;9.442;2022-11-18T10:51:41;8.50;99.90
9828;DHT22;4953;48.952;9.442;2022-11-18T10:54:14;8.50;99.90
9828;DHT22;4953;48.952;9.442;2022-11-18T10:56:53;8.50;99.90
9828;DHT22;4953;48.952;9.442;2022-11-18T10:59:29;8.60;99.90
9828;DHT22;4953;48.952;9.442;2022-11-18T11:02:00;8.60;99.90
9828;DHT22;4953;48.952;9.442;2022-11-18T11:04:29;8.60;99.90
9828;DHT22;4953;48.952;9.442;2022-11-18T11:06:57;8.70;99.90
9828;DHT22;4953;48.952;9.442;2022-11-18T11:09:28;8.60;99.90
9828;DHT22;4953;48.952;9.442;2022-11-18T11:11:57;8.70;99.90
9828;DHT22;4953;48.952;9.442;2022-11-18T11:14:33;8.70;99.90
9828;DHT22;4953;48.952;9.442;2022-11-18T11:17:07;8.70;99.90
9828;DHT22;4953;48.952;9.442;2022-11-18T11:19:50;8.80;99.90
9828;DHT22;4953;48.952;9.442;2022-11-18T11:22:18;8.80;99.90
9828;DHT22;4953;48.952;9.442;2022-11-18T11:24:45;8.90;99.90
9828;DHT22;4953;48.952;9.442;2022-11-18T11:27:37;8.90;99.90
9828;DHT22;4953;48.952;9.442;2022-11-18T11:30:10;8.90;99.90
9828;DHT22;4953;48.952;9.442;2022-11-18T11:32:53;8.90;99.90
9828;DHT22;4953;48.952;9.442;2022-11-18T11:35:29;8.90;99.90
9828;DHT22;4953;48.952;9.442;2022-11-18T11:38:00;8.80;99.90
9828;DHT22;4953;48.952;9.442;2022-11-18T11:40:36;8.90;99.90
9828;DHT22;4953;48.952;9.442;2022-11-18T11:43:19;8.90;99.90
9828;DHT22;4953;48.952;9.442;2022-11-18T11:46:02;8.90;99.90
9828;DHT22;4953;48.952;9.442;2022-11-18T11:48:40;8.90;99.90
9828;DHT22;4953;48.952;9.442;2022-11-18T11:51:17;9.00;99.90
9828;DHT22;4953;48.952;9.442;2022-11-18T11:53:59;9.00;99.90
9828;DHT22;4953;48.952;9.442;2022-11-18T11:56:32;9.00;99.90
9828;DHT22;4953;48.952;9.442;2022-11-18T11:59:16;9.10;99.90
9828;DHT22;4953;48.952;9.442;2022-11-18T12:01:54;9.10;99.90
9828;DHT22;4953;48.952;9.442;2022-11-18T12:04:32;9.20;99.90
9828;DHT22;4953;48.952;9.442;2022-11-18T12:07:02;9.20;99.90
9828;DHT22;4953;48.952;9.442;2022-11-18T12:10:01;9.20;99.90
9828;DHT22;4953;48.952;9.442;2022-11-18T12:12:33;9.20;99.90
9828;DHT22;4953;48.952;9.442;2022-11-18T12:15:18;9.20;99.90
9828;DHT22;4953;48.952;9.442;2022-11-18T12:17:55;9.30;99.90
9828;DHT22;4953;48.952;9.442;2022-11-18T12:20:45;9.30;99.90
9828;DHT22;4953;48.952;9.442;2022-11-18T12:23:14;9.30;99.90
9828;DHT22;4953;48.952;9.442;2022-11-18T12:26:03;9.30;99.90
9828;DHT22;4953;48.952;9.442;2022-11-18T12:28:33;9.30;99.90
9828;DHT22;4953;48.952;9.442;2022-11-18T12:31:32;9.30;99.90
9828;DHT22;4953;48.952;9.442;2022-11-18T12:34:15;9.40;99.90
9828;DHT22;4953;48.952;9.442;2022-11-18T12:36:45;9.40;99.90
9828;DHT22;4953;48.952;9.442;2022-11-18T12:39:46;9.50;99.90
9828;DHT22;4953;48.952;9.442;2022-11-18T12:42:36;9.50;99.90
9828;DHT22;4953;48.952;9.442;2022-11-18T12:45:52;9.50;99.90
9828;DHT22;4953;48.952;9.442;2022-11-18T12:48:37;9.60;99.90
9828;DHT22;4953;48.952;9.442;2022-11-18T12:54:30;9.60;99.90
9828;DHT22;4953;48.952;9.442;2022-11-18T12:57:00;9.70;99.90
9828;DHT22;4953;48.952;9.442;2022-11-18T12:59:30;9.60;99.90
9828;DHT22;4953;48.952;9.442;2022-11-18T13:02:19;9.70;99.90
9828;DHT22;4953;48.952;9.442;2022-11-18T13:05:03;9.70;99.90
9828;DHT22;4953;48.952;9.442;2022-11-18T13:07:31;9.80;99.90
9828;DHT22;4953;48.952;9.442;2022-11-18T13:10:23;9.90;99.90
9828;DHT22;4953;48.952;9.442;2022-11-18T13:12:53;9.90;99.90
9828;DHT22;4953;48.952;9.442;2022-11-18T13:15:20;9.90;99.90
9828;DHT22;4953;48.952;9.442;2022-11-18T13:18:06;9.90;99.90
9828;DHT22;4953;48.952;9.442;2022-11-18T13:20:35;9.90;99.90
9828;DHT22;4953;48.952;9.442;2022-11-18T13:23:14;9.80;99.90
9828;DHT22;4953;48.952;9.442;2022-11-18T13:26:11;9.80;99.90
9828;DHT22;4953;48.952;9.442;2022-11-18T13:28:43;9.60;99.90
9828;DHT22;4953;48.952;9.442;2022-11-18T13:31:22;9.60;99.90
9828;DHT22;4953;48.952;9.442;2022-11-18T13:33:52;9.60;99.90
9828;DHT22;4953;48.952;9.442;2022-11-18T13:36:21;9.60;99.90
9828;DHT22;4953;48.952;9.442;2022-11-18T13:38:55;9.60;99.90
9828;DHT22;4953;48.952;9.442;2022-11-18T13:41:24;9.70;99.90
9828;DHT22;4953;48.952;9.442;2022-11-18T13:44:09;9.70;99.90
9828;DHT22;4953;48.952;9.442;2022-11-18T13:46:37;9.70;99.90
9828;DHT22;4953;48.952;9.442;2022-11-18T13:49:05;9.70;99.90
9828;DHT22;4953;48.952;9.442;2022-11-18T13:51:32;9.60;99.90
9828;DHT22;4953;48.952;9.442;2022-11-18T13:53:59;9.60;99.90
9828;DHT22;4953;48.952;9.442;2022-11-18T13:56:28;9.50;99.90
9828;DHT22;4953;48.952;9.442;2022-11-18T13:58:58;9.40;99.90
9828;DHT22;4953;48.952;9.442;2022-11-18T14:01:27;9.50;99.90
9828;DHT22;4953;48.952;9.442;2022-11-18T14:03:59;9.50;99.90
9828;DHT22;4953;48.952;9.442;2022-11-18T14:06:30;9.40;99.90
9828;DHT22;4953;48.952;9.442;2022-11-18T14:09:11;9.40;99.90
9828;DHT22;4953;48.952;9.442;2022-11-18T14:11:44;9.40;99.90
9828;DHT22;4953;48.952;9.442;2022-11-18T14:14:15;9.40;99.90
9828;DHT22;4953;48.952;9.442;2022-11-18T14:16:52;9.40;99.90
9828;DHT22;4953;48.952;9.442;2022-11-18T14:19:28;9.50;99.90
9828;DHT22;4953;48.952;9.442;2022-11-18T14:22:03;9.50;99.90
9828;DHT22;4953;48.952;9.442;2022-11-18T14:24:30;9.40;99.90
9828;DHT22;4953;48.952;9.442;2022-11-18T14:27:35;9.40;99.90
9828;DHT22;4953;48.952;9.442;2022-11-18T14:30:27;9.40;99.90
9828;DHT22;4953;48.952;9.442;2022-11-18T14:33:15;9.30;99.90
9828;DHT22;4953;48.952;9.442;2022-11-18T14:35:43;9.30;99.90
9828;DHT22;4953;48.952;9.442;2022-11-18T14:38:13;9.30;99.90
9828;DHT22;4953;48.952;9.442;2022-11-18T14:40:40;9.30;99.90
9828;DHT22;4953;48.952;9.442;2022-11-18T14:43:10;9.30;99.90
9828;DHT22;4953;48.952;9.442;2022-11-18T14:45:37;9.30;99.90
9828;DHT22;4953;48.952;9.442;2022-11-18T14:48:04;9.30;99.90
9828;DHT22;4953;48.952;9.442;2022-11-18T14:50:34;9.20;99.90
9828;DHT22;4953;48.952;9.442;2022-11-18T14:53:01;9.20;99.90
9828;DHT22;4953;48.952;9.442;2022-11-18T14:55:35;9.20;99.90
9828;DHT22;4953;48.952;9.442;2022-11-18T14:58:02;9.20;99.90
9828;DHT22;4953;48.952;9.442;2022-11-18T15:00:30;9.10;99.90
9828;DHT22;4953;48.952;9.442;2022-11-18T15:03:00;9.10;99.90
9828;DHT22;4953;48.952;9.442;2022-11-18T15:05:26;9.10;99.90
9828;DHT22;4953;48.952;9.442;2022-11-18T15:07:53;9.10;99.90
9828;DHT22;4953;48.952;9.442;2022-11-18T15:10:20;9.00;99.90
9828;DHT22;4953;48.952;9.442;2022-11-18T15:12:47;9.10;99.90
9828;DHT22;4953;48.952;9.442;2022-11-18T15:15:14;9.00;99.90
9828;DHT22;4953;48.952;9.442;2022-11-18T15:17:42;9.00;99.90
9828;DHT22;4953;48.952;9.442;2022-11-18T15:20:11;8.90;99.90
9828;DHT22;4953;48.952;9.442;2022-11-18T15:22:39;8.90;99.90
9828;DHT22;4953;48.952;9.442;2022-11-18T15:25:08;8.90;99.90
9828;DHT22;4953;48.952;9.442;2022-11-18T15:27:35;8.90;99.90
9828;DHT22;4953;48.952;9.442;2022-11-18T15:30:03;8.80;99.90
9828;DHT22;4953;48.952;9.442;2022-11-18T15:32:32;8.80;99.90
9828;DHT22;4953;48.952;9.442;2022-11-18T15:35:00;8.70;99.90
9828;DHT22;4953;48.952;9.442;2022-11-18T15:37:27;8.80;99.90
9828;DHT22;4953;48.952;9.442;2022-11-18T15:39:54;8.80;99.90
9828;DHT22;4953;48.952;9.442;2022-11-18T15:42:20;8.70;99.90
9828;DHT22;4953;48.952;9.442;2022-11-18T15:44:47;8.70;99.90
9828;DHT22;4953;48.952;9.442;2022-11-18T15:47:14;8.80;99.90
9828;DHT22;4953;48.952;9.442;2022-11-18T15:49:41;8.80;99.90
9828;DHT22;4953;48.952;9.442;2022-11-18T15:52:11;8.80;99.90
9828;DHT22;4953;48.952;9.442;2022-11-18T15:54:38;8.90;99.90
9828;DHT22;4953;48.952;9.442;2022-11-18T15:57:05;8.90;99.90
9828;DHT22;4953;48.952;9.442;2022-11-18T15:59:31;9.00;99.90
9828;DHT22;4953;48.952;9.442;2022-11-18T16:01:58;9.00;99.90
9828;DHT22;4953;48.952;9.442;2022-11-18T16:04:25;9.00;99.90
9828;DHT22;4953;48.952;9.442;2022-11-18T16:06:52;9.10;99.90
9828;DHT22;4953;48.952;9.442;2022-11-18T16:09:20;9.10;99.90
9828;DHT22;4953;48.952;9.442;2022-11-18T16:11:47;9.10;99.90
9828;DHT22;4953;48.952;9.442;2022-11-18T16:14:34;9.10;99.90
9828;DHT22;4953;48.952;9.442;2022-11-18T16:17:01;9.20;99.90
9828;DHT22;4953;48.952;9.442;2022-11-18T16:19:28;9.20;99.90
9828;DHT22;4953;48.952;9.442;2022-11-18T16:21:57;9.20;99.90
9828;DHT22;4953;48.952;9.442;2022-11-18T16:24:27;9.20;99.90
9828;DHT22;4953;48.952;9.442;2022-11-18T16:26:56;9.20;99.90
9828;DHT22;4953;48.952;9.442;2022-11-18T16:29:23;9.20;99.90
9828;DHT22;4953;48.952;9.442;2022-11-18T16:31:50;9.10;99.90
9828;DHT22;4953;48.952;9.442;2022-11-18T16:34:19;9.20;99.90
9828;DHT22;4953;48.952;9.442;2022-11-18T16:36:48;9.20;99.90
9828;DHT22;4953;48.952;9.442;2022-11-18T16:39:18;9.10;99.90
9828;DHT22;4953;48.952;9.442;2022-11-18T16:41:50;9.10;99.90
9828;DHT22;4953;48.952;9.442;2022-11-18T16:44:18;9.20;99.90
9828;DHT22;4953;48.952;9.442;2022-11-18T16:46:46;9.10;99.90
9828;DHT22;4953;48.952;9.442;2022-11-18T16:49:15;9.10;99.90
9828;DHT22;4953;48.952;9.442;2022-11-18T16:51:43;9.00;99.90
9828;DHT22;4953;48.952;9.442;2022-11-18T16:54:14;9.00;99.90
9828;DHT22;4953;48.952;9.442;2022-11-18T16:56:43;9.00;99.90
9828;DHT22;4953;48.952;9.442;2022-11-18T16:59:12;8.90;99.90
9828;DHT22;4953;48.952;9.442;2022-11-18T17:01:39;9.00;99.90
9828;DHT22;4953;48.952;9.442;2022-11-18T17:04:06;9.00;99.90
9828;DHT22;4953;48.952;9.442;2022-11-18T17:06:33;9.00;99.90
9828;DHT22;4953;48.952;9.442;2022-11-18T17:09:00;9.00;99.90
9828;DHT22;4953;48.952;9.442;2022-11-18T17:11:27;9.00;99.90
9828;DHT22;4953;48.952;9.442;2022-11-18T17:13:54;9.10;99.90
9828;DHT22;4953;48.952;9.442;2022-11-18T17:16:24;9.10;99.90
9828;DHT22;4953;48.952;9.442;2022-11-18T17:18:53;9.10;99.90
9828;DHT22;4953;48.952;9.442;2022-11-18T17:21:20;9.20;99.90
9828;DHT22;4953;48.952;9.442;2022-11-18T17:23:48;9.20;99.90
9828;DHT22;4953;48.952;9.442;2022-11-18T17:26:16;9.20;99.90
9828;DHT22;4953;48.952;9.442;2022-11-18T17:28:43;9.20;99.90
9828;DHT22;4953;48.952;9.442;2022-11-18T17:31:11;9.20;99.90
9828;DHT22;4953;48.952;9.442;2022-11-18T17:33:40;9.20;99.90
9828;DHT22;4953;48.952;9.442;2022-11-18T17:36:08;9.20;99.90
9828;DHT22;4953;48.952;9.442;2022-11-18T17:38:36;9.20;99.90
9828;DHT22;4953;48.952;9.442;2022-11-18T17:41:05;9.30;99.90
9828;DHT22;4953;48.952;9.442;2022-11-18T17:43:32;9.30;99.90
9828;DHT22;4953;48.952;9.442;2022-11-18T17:46:00;9.30;99.90
9828;DHT22;4953;48.952;9.442;2022-11-18T17:48:30;9.30;99.90
9828;DHT22;4953;48.952;9.442;2022-11-18T17:51:03;9.30;99.90
9828;DHT22;4953;48.952;9.442;2022-11-18T17:53:31;9.30;99.90
9828;DHT22;4953;48.952;9.442;2022-11-18T17:55:58;9.30;99.90
9828;DHT22;4953;48.952;9.442;2022-11-18T17:58:25;9.30;99.90
9828;DHT22;4953;48.952;9.442;2022-11-18T18:00:51;9.30;99.90
9828;DHT22;4953;48.952;9.442;2022-11-18T18:03:18;9.30;99.90
9828;DHT22;4953;48.952;9.442;2022-11-18T18:05:45;9.30;99.90
9828;DHT22;4953;48.952;9.442;2022-11-18T18:08:13;9.20;99.90
9828;DHT22;4953;48.952;9.442;2022-11-18T18:10:40;9.10;99.90
9828;DHT22;4953;48.952;9.442;2022-11-18T18:13:08;9.10;99.90
9828;DHT22;4953;48.952;9.442;2022-11-18T18:15:59;9.10;99.90
9828;DHT22;4953;48.952;9.442;2022-11-18T18:18:26;9.10;99.90
9828;DHT22;4953;48.952;9.442;2022-11-18T18:20:53;9.10;99.90
9828;DHT22;4953;48.952;9.442;2022-11-18T18:23:24;9.00;99.90
9828;DHT22;4953;48.952;9.442;2022-11-18T18:25:51;9.00;99.90
9828;DHT22;4953;48.952;9.442;2022-11-18T18:28:17;9.00;99.90
9828;DHT22;4953;48.952;9.442;2022-11-18T18:30:44;8.90;99.90
9828;DHT22;4953;48.952;9.442;2022-11-18T18:33:11;8.90;99.90
9828;DHT22;4953;48.952;9.442;2022-11-18T18:35:39;8.90;99.90
9828;DHT22;4953;48.952;9.442;2022-11-18T18:38:06;8.80;99.90
9828;DHT22;4953;48.952;9.442;2022-11-18T18:40:34;8.80;99.90
9828;DHT22;4953;48.952;9.442;2022-11-18T18:43:01;8.80;99.90
9828;DHT22;4953;48.952;9.442;2022-11-18T18:45:28;8.80;99.90
9828;DHT22;4953;48.952;9.442;2022-11-18T18:48:12;8.80;99.90
9828;DHT22;4953;48.952;9.442;2022-11-18T18:50:39;8.80;99.90
9828;DHT22;4953;48.952;9.442;2022-11-18T18:53:06;8.80;99.90
9828;DHT22;4953;48.952;9.442;2022-11-18T18:55:34;8.70;99.90
9828;DHT22;4953;48.952;9.442;2022-11-18T18:58:01;8.70;99.90
9828;DHT22;4953;48.952;9.442;2022-11-18T19:00:27;8.80;99.90
9828;DHT22;4953;48.952;9.442;2022-11-18T19:02:54;8.70;99.90
9828;DHT22;4953;48.952;9.442;2022-11-18T19:05:21;8.70;99.90
9828;DHT22;4953;48.952;9.442;2022-11-18T19:07:48;8.70;99.90
9828;DHT22;4953;48.952;9.442;2022-11-18T19:10:15;8.60;99.90
9828;DHT22;4953;48.952;9.442;2022-11-18T19:12:45;8.60;99.90
9828;DHT22;4953;48.952;9.442;2022-11-18T19:15:17;8.60;99.90
9828;DHT22;4953;48.952;9.442;2022-11-18T19:17:45;8.60;99.90
9828;DHT22;4953;48.952;9.442;2022-11-18T19:20:12;8.60;99.90
9828;DHT22;4953;48.952;9.442;2022-11-18T19:22:58;8.50;99.90
9828;DHT22;4953;48.952;9.442;2022-11-18T19:25:26;8.50;99.90
9828;DHT22;4953;48.952;9.442;2022-11-18T19:27:54;8.50;99.90
9828;DHT22;4953;48.952;9.442;2022-11-18T19:30:21;8.40;99.90
9828;DHT22;4953;48.952;9.442;2022-11-18T19:32:48;8.40;99.90
9828;DHT22;4953;48.952;9.442;2022-11-18T19:35:16;8.40;99.90
9828;DHT22;4953;48.952;9.442;2022-11-18T19:37:43;8.40;99.90
9828;DHT22;4953;48.952;9.442;2022-11-18T19:40:11;8.30;99.90
9828;DHT22;4953;48.952;9.442;2022-11-18T19:42:38;8.40;99.90
9828;DHT22;4953;48.952;9.442;2022-11-18T19:45:09;8.40;99.90
9828;DHT22;4953;48.952;9.442;2022-11-18T19:47:36;8.40;99.90
9828;DHT22;4953;48.952;9.442;2022-11-18T19:50:04;8.40;99.90
9828;DHT22;4953;48.952;9.442;2022-11-18T19:52:31;8.50;99.90
9828;DHT22;4953;48.952;9.442;2022-11-18T19:54:57;8.50;99.90
9828;DHT22;4953;48.952;9.442;2022-11-18T19:57:24;8.50;99.90
9828;DHT22;4953;48.952;9.442;2022-11-18T19:59:51;8.50;99.90
9828;DHT22;4953;48.952;9.442;2022-11-18T20:02:19;8.50;99.90
9828;DHT22;4953;48.952;9.442;2022-11-18T20:04:46;8.50;99.90
9828;DHT22;4953;48.952;9.442;2022-11-18T20:07:29;8.50;99.90
9828;DHT22;4953;48.952;9.442;2022-11-18T20:09:56;8.60;99.90
9828;DHT22;4953;48.952;9.442;2022-11-18T20:12:28;8.60;99.90
9828;DHT22;4953;48.952;9.442;2022-11-18T20:14:56;8.50;99.90
9828;DHT22;4953;48.952;9.442;2022-11-18T20:17:24;8.50;99.90
9828;DHT22;4953;48.952;9.442;2022-11-18T20:19:52;8.50;99.90
9828;DHT22;4953;48.952;9.442;2022-11-18T20:22:19;8.50;99.90
9828;DHT22;4953;48.952;9.442;2022-11-18T20:24:49;8.50;99.90
9828;DHT22;4953;48.952;9.442;2022-11-18T20:27:32;8.40;99.90
9828;DHT22;4953;48.952;9.442;2022-11-18T20:29:59;8.40;99.90
9828;DHT22;4953;48.952;9.442;2022-11-18T20:32:28;8.40;99.90
9828;DHT22;4953;48.952;9.442;2022-11-18T20:34:58;8.40;99.90
9828;DHT22;4953;48.952;9.442;2022-11-18T20:37:25;8.40;99.90
9828;DHT22;4953;48.952;9.442;2022-11-18T20:39:56;8.30;99.90
9828;DHT22;4953;48.952;9.442;2022-11-18T20:42:26;8.30;99.90
9828;DHT22;4953;48.952;9.442;2022-11-18T20:45:11;8.30;99.90
9828;DHT22;4953;48.952;9.442;2022-11-18T20:47:38;8.20;99.90
9828;DHT22;4953;48.952;9.442;2022-11-18T20:50:05;8.20;99.90
9828;DHT22;4953;48.952;9.442;2022-11-18T20:52:32;8.20;99.90
9828;DHT22;4953;48.952;9.442;2022-11-18T20:54:59;8.20;99.90
9828;DHT22;4953;48.952;9.442;2022-11-18T20:57:26;8.30;99.90
9828;DHT22;4953;48.952;9.442;2022-11-18T20:59:54;8.20;99.90
9828;DHT22;4953;48.952;9.442;2022-11-18T21:02:25;8.20;99.90
9828;DHT22;4953;48.952;9.442;2022-11-18T21:04:52;8.20;99.90
9828;DHT22;4953;48.952;9.442;2022-11-18T21:07:18;8.20;99.90
9828;DHT22;4953;48.952;9.442;2022-11-18T21:09:59;8.20;99.90
9828;DHT22;4953;48.952;9.442;2022-11-18T21:12:32;8.30;99.90
9828;DHT22;4953;48.952;9.442;2022-11-18T21:14:59;8.30;99.90
9828;DHT22;4953;48.952;9.442;2022-11-18T21:17:31;8.30;99.90
9828;DHT22;4953;48.952;9.442;2022-11-18T21:19:59;8.30;99.90
9828;DHT22;4953;48.952;9.442;2022-11-18T21:22:45;8.30;99.90
9828;DHT22;4953;48.952;9.442;2022-11-18T21:25:11;8.20;99.90
9828;DHT22;4953;48.952;9.442;2022-11-18T21:27:38;8.20;99.90
9828;DHT22;4953;48.952;9.442;2022-11-18T21:30:06;8.30;99.90
9828;DHT22;4953;48.952;9.442;2022-11-18T21:32:34;8.30;99.90
9828;DHT22;4953;48.952;9.442;2022-11-18T21:35:01;8.30;99.90
9828;DHT22;4953;48.952;9.442;2022-11-18T21:37:28;8.30;99.90
9828;DHT22;4953;48.952;9.442;2022-11-18T21:39:57;8.40;99.90
9828;DHT22;4953;48.952;9.442;2022-11-18T21:42:24;8.30;99.90